sensor_id;sensor_type;location;lat;lon;timestamp;temperature;humidity
35277;DHT22;21401;50.878;8.050;2022-09-03T00:02:01;12.80;99.90
35277;DHT22;21401;50.878;8.050;2022-09-03T00:07:18;13.00;99.90
35277;DHT22;21401;50.878;8.050;2022-09-03T00:09:56;13.20;99.90
35277;DHT22;21401;50.878;8.050;2022-09-03T00:12:28;13.40;99.90
35277;DHT22;21401;50.878;8.050;2022-09-03T00:15:04;13.50;99.90
35277;DHT22;21401;50.878;8.050;2022-09-03T00:17:45;13.60;99.90
35277;DHT22;21401;50.878;8.050;2022-09-03T00:20:29;13.50;99.90
35277;DHT22;21401;50.878;8.050;2022-09-03T00:23:02;13.40;99.90
35277;DHT22;21401;50.878;8.050;2022-09-03T00:28:03;13.10;99.90
35277;DHT22;21401;50.878;8.050;2022-09-03T00:30:31;13.10;99.90
35277;DHT22;21401;50.878;8.050;2022-09-03T00:33:06;13.30;99.90
35277;DHT22;21401;50.878;8.050;2022-09-03T00:35:41;13.50;99.90
35277;DHT22;21401;50.878;8.050;2022-09-03T00:38:07;13.60;99.90
35277;DHT22;21401;50.878;8.050;2022-09-03T00:40:47;13.70;99.90
35277;DHT22;21401;50.878;8.050;2022-09-03T00:46:41;13.60;99.90
35277;DHT22;21401;50.878;8.050;2022-09-03T01:00:05;13.30;99.90
35277;DHT22;21401;50.878;8.050;2022-09-03T01:02:46;13.00;99.90
35277;DHT22;21401;50.878;8.050;2022-09-03T01:14:51;12.50;99.90
35277;DHT22;21401;50.878;8.050;2022-09-03T01:20:13;12.60;99.90
35277;DHT22;21401;50.878;8.050;2022-09-03T01:36:31;12.70;99.90
35277;DHT22;21401;50.878;8.050;2022-09-03T01:39:06;12.70;99.90
35277;DHT22;21401;50.878;8.050;2022-09-03T01:50:45;12.70;99.90
35277;DHT22;21401;50.878;8.050;2022-09-03T01:59:25;12.50;99.90
35277;DHT22;21401;50.878;8.050;2022-09-03T02:01:58;12.70;99.90
35277;DHT22;21401;50.878;8.050;2022-09-03T02:04:27;12.80;99.90
35277;DHT22;21401;50.878;8.050;2022-09-03T02:06:57;12.60;99.90
35277;DHT22;21401;50.878;8.050;2022-09-03T02:09:27;12.70;99.90
35277;DHT22;21401;50.878;8.050;2022-09-03T02:11:56;12.60;99.90
35277;DHT22;21401;50.878;8.050;2022-09-03T02:14:25;12.80;99.90
35277;DHT22;21401;50.878;8.050;2022-09-03T02:16:52;12.90;99.90
35277;DHT22;21401;50.878;8.050;2022-09-03T02:19:18;12.90;99.90
35277;DHT22;21401;50.878;8.050;2022-09-03T02:21:51;12.80;99.90
35277;DHT22;21401;50.878;8.050;2022-09-03T02:24:17;12.90;99.90
35277;DHT22;21401;50.878;8.050;2022-09-03T02:26:46;12.90;99.90
35277;DHT22;21401;50.878;8.050;2022-09-03T02:29:14;12.80;99.90
35277;DHT22;21401;50.878;8.050;2022-09-03T02:31:42;12.80;99.90
35277;DHT22;21401;50.878;8.050;2022-09-03T02:34:07;12.70;99.90
35277;DHT22;21401;50.878;8.050;2022-09-03T02:36:41;12.80;99.90
35277;DHT22;21401;50.878;8.050;2022-09-03T02:39:07;12.90;99.90
35277;DHT22;21401;50.878;8.050;2022-09-03T02:41:35;12.90;99.90
35277;DHT22;21401;50.878;8.050;2022-09-03T02:44:26;13.00;99.90
35277;DHT22;21401;50.878;8.050;2022-09-03T02:47:06;12.90;99.90
35277;DHT22;21401;50.878;8.050;2022-09-03T02:49:33;12.80;99.90
35277;DHT22;21401;50.878;8.050;2022-09-03T02:52:01;12.80;99.90
35277;DHT22;21401;50.878;8.050;2022-09-03T02:54:31;12.90;99.90
35277;DHT22;21401;50.878;8.050;2022-09-03T02:57:00;12.90;99.90
35277;DHT22;21401;50.878;8.050;2022-09-03T02:59:28;12.90;99.90
35277;DHT22;21401;50.878;8.050;2022-09-03T03:01:56;13.10;99.90
35277;DHT22;21401;50.878;8.050;2022-09-03T03:04:21;13.10;99.90
35277;DHT22;21401;50.878;8.050;2022-09-03T03:06:47;13.00;99.90
35277;DHT22;21401;50.878;8.050;2022-09-03T03:09:15;12.90;99.90
35277;DHT22;21401;50.878;8.050;2022-09-03T03:11:41;13.20;99.90
35277;DHT22;21401;50.878;8.050;2022-09-03T03:14:07;13.40;99.90
35277;DHT22;21401;50.878;8.050;2022-09-03T03:16:33;13.60;99.90
35277;DHT22;21401;50.878;8.050;2022-09-03T03:18:58;13.40;99.90
35277;DHT22;21401;50.878;8.050;2022-09-03T03:21:25;13.40;99.90
35277;DHT22;21401;50.878;8.050;2022-09-03T03:23:53;13.70;99.90
35277;DHT22;21401;50.878;8.050;2022-09-03T03:26:19;13.60;99.90
35277;DHT22;21401;50.878;8.050;2022-09-03T03:28:46;13.70;99.90
35277;DHT22;21401;50.878;8.050;2022-09-03T03:31:15;13.60;99.90
35277;DHT22;21401;50.878;8.050;2022-09-03T03:33:42;13.50;99.90
35277;DHT22;21401;50.878;8.050;2022-09-03T03:36:12;13.40;99.90
35277;DHT22;21401;50.878;8.050;2022-09-03T03:38:39;13.30;99.90
35277;DHT22;21401;50.878;8.050;2022-09-03T03:41:14;13.20;99.90
35277;DHT22;21401;50.878;8.050;2022-09-03T03:43:42;13.10;99.90
35277;DHT22;21401;50.878;8.050;2022-09-03T03:46:08;13.00;99.90
35277;DHT22;21401;50.878;8.050;2022-09-03T03:48:37;12.90;99.90
35277;DHT22;21401;50.878;8.050;2022-09-03T03:51:05;13.00;99.90
35277;DHT22;21401;50.878;8.050;2022-09-03T03:53:35;13.00;99.90
35277;DHT22;21401;50.878;8.050;2022-09-03T03:56:02;13.00;99.90
35277;DHT22;21401;50.878;8.050;2022-09-03T03:58:29;13.00;99.90
35277;DHT22;21401;50.878;8.050;2022-09-03T04:01:04;13.10;99.90
35277;DHT22;21401;50.878;8.050;2022-09-03T04:03:30;13.10;99.90
35277;DHT22;21401;50.878;8.050;2022-09-03T04:05:56;13.10;99.90
35277;DHT22;21401;50.878;8.050;2022-09-03T04:08:23;13.10;99.90
35277;DHT22;21401;50.878;8.050;2022-09-03T04:10:51;13.10;99.90
35277;DHT22;21401;50.878;8.050;2022-09-03T04:13:17;13.20;99.90
35277;DHT22;21401;50.878;8.050;2022-09-03T04:15:43;13.10;99.90
35277;DHT22;21401;50.878;8.050;2022-09-03T04:18:09;13.10;99.90
35277;DHT22;21401;50.878;8.050;2022-09-03T04:20:37;13.40;99.90
35277;DHT22;21401;50.878;8.050;2022-09-03T04:23:04;13.40;99.90
35277;DHT22;21401;50.878;8.050;2022-09-03T04:25:30;13.50;99.90
35277;DHT22;21401;50.878;8.050;2022-09-03T04:27:58;13.80;99.90
35277;DHT22;21401;50.878;8.050;2022-09-03T04:30:31;13.70;99.90
35277;DHT22;21401;50.878;8.050;2022-09-03T04:32:59;13.70;99.90
35277;DHT22;21401;50.878;8.050;2022-09-03T04:35:25;13.50;99.90
35277;DHT22;21401;50.878;8.050;2022-09-03T04:37:54;13.30;99.90
35277;DHT22;21401;50.878;8.050;2022-09-03T04:40:20;13.10;99.90
35277;DHT22;21401;50.878;8.050;2022-09-03T04:42:46;13.00;99.90
35277;DHT22;21401;50.878;8.050;2022-09-03T04:45:11;12.80;99.90
35277;DHT22;21401;50.878;8.050;2022-09-03T04:47:57;12.90;99.90
35277;DHT22;21401;50.878;8.050;2022-09-03T04:50:26;12.90;99.90
35277;DHT22;21401;50.878;8.050;2022-09-03T04:52:59;12.90;99.90
35277;DHT22;21401;50.878;8.050;2022-09-03T04:55:25;12.80;99.90
35277;DHT22;21401;50.878;8.050;2022-09-03T04:57:51;12.90;99.90
35277;DHT22;21401;50.878;8.050;2022-09-03T05:00:17;12.80;99.90
35277;DHT22;21401;50.878;8.050;2022-09-03T05:02:44;12.80;99.90
35277;DHT22;21401;50.878;8.050;2022-09-03T05:05:12;12.80;99.90
35277;DHT22;21401;50.878;8.050;2022-09-03T05:07:40;12.90;99.90
35277;DHT22;21401;50.878;8.050;2022-09-03T05:10:07;12.90;99.90
35277;DHT22;21401;50.878;8.050;2022-09-03T05:12:34;12.90;99.90
35277;DHT22;21401;50.878;8.050;2022-09-03T05:15:00;12.90;99.90
35277;DHT22;21401;50.878;8.050;2022-09-03T05:17:26;13.00;99.90
35277;DHT22;21401;50.878;8.050;2022-09-03T05:19:52;13.10;99.90
35277;DHT22;21401;50.878;8.050;2022-09-03T05:22:18;13.00;99.90
35277;DHT22;21401;50.878;8.050;2022-09-03T05:24:47;13.10;99.90
35277;DHT22;21401;50.878;8.050;2022-09-03T05:27:13;13.10;99.90
35277;DHT22;21401;50.878;8.050;2022-09-03T05:29:44;13.10;99.90
35277;DHT22;21401;50.878;8.050;2022-09-03T05:32:15;13.00;99.90
35277;DHT22;21401;50.878;8.050;2022-09-03T05:34:44;13.10;99.90
35277;DHT22;21401;50.878;8.050;2022-09-03T05:37:10;13.10;99.90
35277;DHT22;21401;50.878;8.050;2022-09-03T05:39:39;13.20;99.90
35277;DHT22;21401;50.878;8.050;2022-09-03T05:42:07;13.30;99.90
35277;DHT22;21401;50.878;8.050;2022-09-03T05:44:35;13.50;99.90
35277;DHT22;21401;50.878;8.050;2022-09-03T05:47:04;13.60;99.90
35277;DHT22;21401;50.878;8.050;2022-09-03T05:49:30;13.80;99.90
35277;DHT22;21401;50.878;8.050;2022-09-03T05:51:56;14.30;99.90
35277;DHT22;21401;50.878;8.050;2022-09-03T05:54:22;14.80;99.90
35277;DHT22;21401;50.878;8.050;2022-09-03T05:56:48;15.00;99.90
35277;DHT22;21401;50.878;8.050;2022-09-03T05:59:15;15.10;99.90
35277;DHT22;21401;50.878;8.050;2022-09-03T06:01:42;15.40;99.90
35277;DHT22;21401;50.878;8.050;2022-09-03T06:04:11;15.50;99.90
35277;DHT22;21401;50.878;8.050;2022-09-03T06:06:40;15.70;99.90
35277;DHT22;21401;50.878;8.050;2022-09-03T06:09:10;15.70;99.90
35277;DHT22;21401;50.878;8.050;2022-09-03T06:11:38;15.70;99.90
35277;DHT22;21401;50.878;8.050;2022-09-03T06:14:09;16.00;99.90
35277;DHT22;21401;50.878;8.050;2022-09-03T06:16:38;16.20;99.90
35277;DHT22;21401;50.878;8.050;2022-09-03T06:19:04;16.40;99.70
35277;DHT22;21401;50.878;8.050;2022-09-03T06:21:35;16.50;99.30
35277;DHT22;21401;50.878;8.050;2022-09-03T06:24:01;16.60;99.30
35277;DHT22;21401;50.878;8.050;2022-09-03T06:26:29;16.80;99.00
35277;DHT22;21401;50.878;8.050;2022-09-03T06:28:55;16.70;98.90
35277;DHT22;21401;50.878;8.050;2022-09-03T06:31:22;16.80;98.80
35277;DHT22;21401;50.878;8.050;2022-09-03T06:33:48;16.90;98.70
35277;DHT22;21401;50.878;8.050;2022-09-03T06:36:17;16.80;98.80
35277;DHT22;21401;50.878;8.050;2022-09-03T06:38:44;16.80;98.90
35277;DHT22;21401;50.878;8.050;2022-09-03T06:41:12;16.90;98.60
35277;DHT22;21401;50.878;8.050;2022-09-03T06:43:40;17.10;98.30
35277;DHT22;21401;50.878;8.050;2022-09-03T06:46:12;17.10;98.20
35277;DHT22;21401;50.878;8.050;2022-09-03T06:48:38;17.50;97.90
35277;DHT22;21401;50.878;8.050;2022-09-03T06:51:19;17.60;97.90
35277;DHT22;21401;50.878;8.050;2022-09-03T06:53:47;17.50;97.60
35277;DHT22;21401;50.878;8.050;2022-09-03T06:56:17;17.20;97.80
35277;DHT22;21401;50.878;8.050;2022-09-03T06:58:44;17.10;98.20
35277;DHT22;21401;50.878;8.050;2022-09-03T07:01:22;17.20;98.20
35277;DHT22;21401;50.878;8.050;2022-09-03T07:03:55;17.30;98.20
35277;DHT22;21401;50.878;8.050;2022-09-03T07:06:26;17.30;98.10
35277;DHT22;21401;50.878;8.050;2022-09-03T07:08:52;17.30;98.10
35277;DHT22;21401;50.878;8.050;2022-09-03T07:11:20;17.20;98.10
35277;DHT22;21401;50.878;8.050;2022-09-03T07:13:49;17.20;98.30
35277;DHT22;21401;50.878;8.050;2022-09-03T07:16:18;17.10;98.40
35277;DHT22;21401;50.878;8.050;2022-09-03T07:18:44;17.10;98.50
35277;DHT22;21401;50.878;8.050;2022-09-03T07:21:13;17.10;98.40
35277;DHT22;21401;50.878;8.050;2022-09-03T07:23:39;17.10;98.40
35277;DHT22;21401;50.878;8.050;2022-09-03T07:26:11;17.10;98.40
35277;DHT22;21401;50.878;8.050;2022-09-03T07:28:39;17.30;98.40
35277;DHT22;21401;50.878;8.050;2022-09-03T07:31:11;17.40;98.00
35277;DHT22;21401;50.878;8.050;2022-09-03T07:33:40;17.90;97.70
35277;DHT22;21401;50.878;8.050;2022-09-03T07:36:08;18.10;97.10
35277;DHT22;21401;50.878;8.050;2022-09-03T07:38:35;18.20;96.90
35277;DHT22;21401;50.878;8.050;2022-09-03T07:41:06;18.40;96.60
35277;DHT22;21401;50.878;8.050;2022-09-03T07:43:44;18.70;96.30
35277;DHT22;21401;50.878;8.050;2022-09-03T07:46:23;18.90;95.70
35277;DHT22;21401;50.878;8.050;2022-09-03T07:48:54;19.20;95.40
35277;DHT22;21401;50.878;8.050;2022-09-03T07:51:25;19.20;95.00
35277;DHT22;21401;50.878;8.050;2022-09-03T07:53:54;19.00;95.30
35277;DHT22;21401;50.878;8.050;2022-09-03T07:56:23;19.20;95.10
35277;DHT22;21401;50.878;8.050;2022-09-03T07:58:49;19.00;95.10
35277;DHT22;21401;50.878;8.050;2022-09-03T08:01:21;18.70;95.60
35277;DHT22;21401;50.878;8.050;2022-09-03T08:03:49;18.50;96.00
35277;DHT22;21401;50.878;8.050;2022-09-03T08:06:17;18.50;96.00
35277;DHT22;21401;50.878;8.050;2022-09-03T08:08:43;18.40;96.10
35277;DHT22;21401;50.878;8.050;2022-09-03T08:11:20;18.20;96.20
35277;DHT22;21401;50.878;8.050;2022-09-03T08:13:57;18.20;97.00
35277;DHT22;21401;50.878;8.050;2022-09-03T08:16:27;18.30;96.50
35277;DHT22;21401;50.878;8.050;2022-09-03T08:18:55;18.30;96.60
35277;DHT22;21401;50.878;8.050;2022-09-03T08:21:21;18.20;96.50
35277;DHT22;21401;50.878;8.050;2022-09-03T08:23:52;18.10;96.60
35277;DHT22;21401;50.878;8.050;2022-09-03T08:26:20;18.10;96.80
35277;DHT22;21401;50.878;8.050;2022-09-03T08:28:51;18.10;96.90
35277;DHT22;21401;50.878;8.050;2022-09-03T08:31:22;18.20;96.90
35277;DHT22;21401;50.878;8.050;2022-09-03T08:33:51;18.10;96.80
35277;DHT22;21401;50.878;8.050;2022-09-03T08:38:45;17.90;97.30
35277;DHT22;21401;50.878;8.050;2022-09-03T08:46:18;17.90;97.30
35277;DHT22;21401;50.878;8.050;2022-09-03T08:48:45;17.90;97.50
35277;DHT22;21401;50.878;8.050;2022-09-03T08:51:12;18.00;97.50
35277;DHT22;21401;50.878;8.050;2022-09-03T08:53:48;18.10;97.30
35277;DHT22;21401;50.878;8.050;2022-09-03T08:56:29;18.30;97.10
35277;DHT22;21401;50.878;8.050;2022-09-03T08:58:55;18.50;97.00
35277;DHT22;21401;50.878;8.050;2022-09-03T09:09:32;18.80;96.20
35277;DHT22;21401;50.878;8.050;2022-09-03T09:23:39;18.70;96.70
35277;DHT22;21401;50.878;8.050;2022-09-03T09:26:11;18.60;96.60
35277;DHT22;21401;50.878;8.050;2022-09-03T09:28:38;18.70;96.60
35277;DHT22;21401;50.878;8.050;2022-09-03T09:31:06;18.70;96.50
35277;DHT22;21401;50.878;8.050;2022-09-03T09:33:36;18.70;96.50
35277;DHT22;21401;50.878;8.050;2022-09-03T09:36:09;18.90;96.50
35277;DHT22;21401;50.878;8.050;2022-09-03T09:38:37;19.00;96.30
35277;DHT22;21401;50.878;8.050;2022-09-03T09:41:17;18.90;96.10
35277;DHT22;21401;50.878;8.050;2022-09-03T09:43:46;19.10;96.20
35277;DHT22;21401;50.878;8.050;2022-09-03T09:46:24;19.70;95.90
35277;DHT22;21401;50.878;8.050;2022-09-03T09:48:52;19.70;95.20
35277;DHT22;21401;50.878;8.050;2022-09-03T09:51:26;19.80;95.10
35277;DHT22;21401;50.878;8.050;2022-09-03T09:54:11;20.00;95.10
35277;DHT22;21401;50.878;8.050;2022-09-03T09:56:46;20.10;94.70
35277;DHT22;21401;50.878;8.050;2022-09-03T09:59:13;19.70;95.50
35277;DHT22;21401;50.878;8.050;2022-09-03T10:01:43;19.90;95.10
35277;DHT22;21401;50.878;8.050;2022-09-03T10:04:28;19.90;95.60
35277;DHT22;21401;50.878;8.050;2022-09-03T10:06:58;19.80;95.70
35277;DHT22;21401;50.878;8.050;2022-09-03T10:09:27;19.60;96.00
35277;DHT22;21401;50.878;8.050;2022-09-03T10:23:28;19.30;96.50
35277;DHT22;21401;50.878;8.050;2022-09-03T10:26:03;19.30;96.50
35277;DHT22;21401;50.878;8.050;2022-09-03T10:28:34;19.40;96.70
35277;DHT22;21401;50.878;8.050;2022-09-03T10:33:55;19.50;96.60
35277;DHT22;21401;50.878;8.050;2022-09-03T10:36:35;19.70;96.30
35277;DHT22;21401;50.878;8.050;2022-09-03T10:46:28;19.80;96.40
35277;DHT22;21401;50.878;8.050;2022-09-03T10:49:17;19.80;96.30
35277;DHT22;21401;50.878;8.050;2022-09-03T10:52:19;19.80;96.10
35277;DHT22;21401;50.878;8.050;2022-09-03T11:07:03;19.90;96.30
35277;DHT22;21401;50.878;8.050;2022-09-03T11:12:39;19.70;96.40
35277;DHT22;21401;50.878;8.050;2022-09-03T11:15:19;19.80;96.60
35277;DHT22;21401;50.878;8.050;2022-09-03T11:17:53;19.90;96.50
35277;DHT22;21401;50.878;8.050;2022-09-03T11:20:23;19.90;96.50
35277;DHT22;21401;50.878;8.050;2022-09-03T11:22:54;20.10;96.40
35277;DHT22;21401;50.878;8.050;2022-09-03T11:25:25;20.00;96.40
35277;DHT22;21401;50.878;8.050;2022-09-03T11:27:55;20.10;96.60
35277;DHT22;21401;50.878;8.050;2022-09-03T11:30:32;20.20;96.80
35277;DHT22;21401;50.878;8.050;2022-09-03T11:33:07;20.20;97.00
35277;DHT22;21401;50.878;8.050;2022-09-03T11:38:02;20.50;96.30
35277;DHT22;21401;50.878;8.050;2022-09-03T11:47:57;20.80;96.10
35277;DHT22;21401;50.878;8.050;2022-09-03T11:50:24;20.90;96.30
35277;DHT22;21401;50.878;8.050;2022-09-03T11:53:05;20.70;96.60
35277;DHT22;21401;50.878;8.050;2022-09-03T11:55:32;20.90;96.70
35277;DHT22;21401;50.878;8.050;2022-09-03T11:58:10;21.00;96.50
35277;DHT22;21401;50.878;8.050;2022-09-03T12:00:36;20.90;96.50
35277;DHT22;21401;50.878;8.050;2022-09-03T12:03:03;20.90;96.60
35277;DHT22;21401;50.878;8.050;2022-09-03T12:08:21;21.00;96.80
35277;DHT22;21401;50.878;8.050;2022-09-03T12:19:10;21.60;96.20
35277;DHT22;21401;50.878;8.050;2022-09-03T12:21:48;21.50;96.30
35277;DHT22;21401;50.878;8.050;2022-09-03T12:24:14;21.60;96.50
35277;DHT22;21401;50.878;8.050;2022-09-03T12:26:44;21.70;96.40
35277;DHT22;21401;50.878;8.050;2022-09-03T12:29:30;21.70;96.30
35277;DHT22;21401;50.878;8.050;2022-09-03T12:32:06;21.70;95.70
35277;DHT22;21401;50.878;8.050;2022-09-03T12:34:32;21.70;95.90
35277;DHT22;21401;50.878;8.050;2022-09-03T12:36:57;21.90;95.80
35277;DHT22;21401;50.878;8.050;2022-09-03T12:39:25;21.80;96.00
35277;DHT22;21401;50.878;8.050;2022-09-03T12:47:11;22.00;95.80
35277;DHT22;21401;50.878;8.050;2022-09-03T12:49:42;22.00;95.40
35277;DHT22;21401;50.878;8.050;2022-09-03T12:52:32;21.80;95.70
35277;DHT22;21401;50.878;8.050;2022-09-03T12:55:16;21.80;95.90
35277;DHT22;21401;50.878;8.050;2022-09-03T12:57:48;21.90;95.70
35277;DHT22;21401;50.878;8.050;2022-09-03T13:00:19;21.90;96.00
35277;DHT22;21401;50.878;8.050;2022-09-03T13:03:02;22.00;95.80
35277;DHT22;21401;50.878;8.050;2022-09-03T13:05:43;22.30;95.50
35277;DHT22;21401;50.878;8.050;2022-09-03T13:08:14;22.70;95.00
35277;DHT22;21401;50.878;8.050;2022-09-03T13:10:44;22.50;95.10
35277;DHT22;21401;50.878;8.050;2022-09-03T13:13:28;22.60;95.10
35277;DHT22;21401;50.878;8.050;2022-09-03T13:38:13;23.20;94.90
35277;DHT22;21401;50.878;8.050;2022-09-03T13:41:00;23.20;94.70
35277;DHT22;21401;50.878;8.050;2022-09-03T13:43:40;23.10;94.90
35277;DHT22;21401;50.878;8.050;2022-09-03T13:46:31;23.00;95.10
35277;DHT22;21401;50.878;8.050;2022-09-03T13:52:21;22.50;95.90
35277;DHT22;21401;50.878;8.050;2022-09-03T13:54:56;22.90;95.70
35277;DHT22;21401;50.878;8.050;2022-09-03T14:00:01;22.70;95.70
35277;DHT22;21401;50.878;8.050;2022-09-03T14:05:46;22.70;95.70
35277;DHT22;21401;50.878;8.050;2022-09-03T14:11:27;22.60;95.70
35277;DHT22;21401;50.878;8.050;2022-09-03T14:14:19;22.80;95.80
35277;DHT22;21401;50.878;8.050;2022-09-03T14:17:05;22.70;95.70
35277;DHT22;21401;50.878;8.050;2022-09-03T14:23:23;22.50;96.30
35277;DHT22;21401;50.878;8.050;2022-09-03T14:25:58;22.30;96.80
35277;DHT22;21401;50.878;8.050;2022-09-03T14:28:41;22.10;97.10
35277;DHT22;21401;50.878;8.050;2022-09-03T14:34:13;22.20;97.20
35277;DHT22;21401;50.878;8.050;2022-09-03T14:48:10;22.10;97.90
35277;DHT22;21401;50.878;8.050;2022-09-03T14:54:01;22.10;98.20
35277;DHT22;21401;50.878;8.050;2022-09-03T14:59:50;22.60;97.80
35277;DHT22;21401;50.878;8.050;2022-09-03T15:08:07;22.30;98.10
35277;DHT22;21401;50.878;8.050;2022-09-03T15:10:51;22.20;98.30
35277;DHT22;21401;50.878;8.050;2022-09-03T15:13:19;22.00;98.60
35277;DHT22;21401;50.878;8.050;2022-09-03T15:27:38;22.50;98.30
35277;DHT22;21401;50.878;8.050;2022-09-03T15:30:17;22.40;98.30
35277;DHT22;21401;50.878;8.050;2022-09-03T15:41:01;21.70;99.10
35277;DHT22;21401;50.878;8.050;2022-09-03T15:43:32;21.90;99.10
35277;DHT22;21401;50.878;8.050;2022-09-03T15:45:59;21.80;99.00
35277;DHT22;21401;50.878;8.050;2022-09-03T15:54:08;21.60;99.20
35277;DHT22;21401;50.878;8.050;2022-09-03T15:56:54;21.60;99.40
35277;DHT22;21401;50.878;8.050;2022-09-03T16:02:14;21.60;99.20
35277;DHT22;21401;50.878;8.050;2022-09-03T16:12:35;21.80;98.90
35277;DHT22;21401;50.878;8.050;2022-09-03T16:15:14;21.70;99.00
35277;DHT22;21401;50.878;8.050;2022-09-03T16:18:00;21.70;99.00
35277;DHT22;21401;50.878;8.050;2022-09-03T16:21:03;21.60;99.10
35277;DHT22;21401;50.878;8.050;2022-09-03T16:29:30;21.70;99.30
35277;DHT22;21401;50.878;8.050;2022-09-03T16:32:54;21.70;99.30
35277;DHT22;21401;50.878;8.050;2022-09-03T16:37:57;21.60;99.60
35277;DHT22;21401;50.878;8.050;2022-09-03T16:41:01;21.70;99.70
35277;DHT22;21401;50.878;8.050;2022-09-03T16:52:47;21.70;99.80
35277;DHT22;21401;50.878;8.050;2022-09-03T16:55:18;21.80;99.80
35277;DHT22;21401;50.878;8.050;2022-09-03T17:00:21;21.60;99.90
35277;DHT22;21401;50.878;8.050;2022-09-03T17:11:46;21.40;99.90
35277;DHT22;21401;50.878;8.050;2022-09-03T17:14:25;21.40;99.90
35277;DHT22;21401;50.878;8.050;2022-09-03T17:17:03;21.40;99.90
35277;DHT22;21401;50.878;8.050;2022-09-03T17:24:58;21.20;99.90
35277;DHT22;21401;50.878;8.050;2022-09-03T17:49:22;20.80;99.90
35277;DHT22;21401;50.878;8.050;2022-09-03T17:54:39;20.80;99.90
35277;DHT22;21401;50.878;8.050;2022-09-03T17:57:22;20.80;99.90
35277;DHT22;21401;50.878;8.050;2022-09-03T18:02:35;20.70;99.90
35277;DHT22;21401;50.878;8.050;2022-09-03T18:13:30;20.60;99.90
35277;DHT22;21401;50.878;8.050;2022-09-03T18:16:17;20.50;99.90
35277;DHT22;21401;50.878;8.050;2022-09-03T18:18:51;20.40;99.90
35277;DHT22;21401;50.878;8.050;2022-09-03T18:21:25;20.40;99.90
35277;DHT22;21401;50.878;8.050;2022-09-03T18:24:44;20.40;99.90
35277;DHT22;21401;50.878;8.050;2022-09-03T18:27:42;20.30;99.90
35277;DHT22;21401;50.878;8.050;2022-09-03T18:30:27;20.20;99.90
35277;DHT22;21401;50.878;8.050;2022-09-03T18:33:11;20.10;99.90
35277;DHT22;21401;50.878;8.050;2022-09-03T18:35:57;20.00;99.90
35277;DHT22;21401;50.878;8.050;2022-09-03T18:38:42;20.00;99.90
35277;DHT22;21401;50.878;8.050;2022-09-03T18:50:27;19.90;99.90
35277;DHT22;21401;50.878;8.050;2022-09-03T18:56:15;19.70;99.90
35277;DHT22;21401;50.878;8.050;2022-09-03T18:59:08;19.60;99.90
35277;DHT22;21401;50.878;8.050;2022-09-03T19:02:06;19.40;99.90
35277;DHT22;21401;50.878;8.050;2022-09-03T19:05:24;19.30;99.90
35277;DHT22;21401;50.878;8.050;2022-09-03T19:08:17;19.30;99.90
35277;DHT22;21401;50.878;8.050;2022-09-03T19:11:06;19.20;99.90
35277;DHT22;21401;50.878;8.050;2022-09-03T19:13:54;19.20;99.90
35277;DHT22;21401;50.878;8.050;2022-09-03T19:16:53;19.10;99.90
35277;DHT22;21401;50.878;8.050;2022-09-03T19:25:15;18.90;99.90
35277;DHT22;21401;50.878;8.050;2022-09-03T19:28:21;18.60;99.90
35277;DHT22;21401;50.878;8.050;2022-09-03T19:31:35;18.40;99.90
35277;DHT22;21401;50.878;8.050;2022-09-03T19:37:34;17.70;99.90
35277;DHT22;21401;50.878;8.050;2022-09-03T19:43:51;17.60;99.90
35277;DHT22;21401;50.878;8.050;2022-09-03T19:46:50;17.50;99.90
35277;DHT22;21401;50.878;8.050;2022-09-03T19:49:52;17.60;99.90
35277;DHT22;21401;50.878;8.050;2022-09-03T19:52:58;17.30;99.90
35277;DHT22;21401;50.878;8.050;2022-09-03T19:55:55;17.30;99.90
35277;DHT22;21401;50.878;8.050;2022-09-03T19:58:51;17.20;99.90
35277;DHT22;21401;50.878;8.050;2022-09-03T20:01:37;17.20;99.90
35277;DHT22;21401;50.878;8.050;2022-09-03T20:04:37;17.20;99.90
35277;DHT22;21401;50.878;8.050;2022-09-03T20:07:25;17.30;99.90
35277;DHT22;21401;50.878;8.050;2022-09-03T20:10:11;17.10;99.90
35277;DHT22;21401;50.878;8.050;2022-09-03T20:13:13;17.00;99.90
35277;DHT22;21401;50.878;8.050;2022-09-03T20:19:06;16.90;99.90
35277;DHT22;21401;50.878;8.050;2022-09-03T20:25:01;16.90;99.90
35277;DHT22;21401;50.878;8.050;2022-09-03T20:30:32;16.90;99.90
35277;DHT22;21401;50.878;8.050;2022-09-03T20:36:14;16.70;99.90
35277;DHT22;21401;50.878;8.050;2022-09-03T21:11:18;15.90;99.90
35277;DHT22;21401;50.878;8.050;2022-09-03T21:27:55;15.60;99.90
35277;DHT22;21401;50.878;8.050;2022-09-03T21:30:23;15.60;99.90
35277;DHT22;21401;50.878;8.050;2022-09-03T21:32:53;15.70;99.90
35277;DHT22;21401;50.878;8.050;2022-09-03T21:38:08;15.30;99.90
35277;DHT22;21401;50.878;8.050;2022-09-03T21:40:47;15.10;99.90
35277;DHT22;21401;50.878;8.050;2022-09-03T21:43:21;15.00;99.90
35277;DHT22;21401;50.878;8.050;2022-09-03T21:49:04;14.80;99.90
35277;DHT22;21401;50.878;8.050;2022-09-03T21:51:45;14.80;99.90
35277;DHT22;21401;50.878;8.050;2022-09-03T21:54:26;14.80;99.90
35277;DHT22;21401;50.878;8.050;2022-09-03T21:57:18;14.90;99.90
35277;DHT22;21401;50.878;8.050;2022-09-03T21:59:53;14.80;99.90
35277;DHT22;21401;50.878;8.050;2022-09-03T22:02:30;14.70;99.90
35277;DHT22;21401;50.878;8.050;2022-09-03T22:04:58;14.70;99.90
35277;DHT22;21401;50.878;8.050;2022-09-03T22:07:46;14.60;99.90
35277;DHT22;21401;50.878;8.050;2022-09-03T22:10:25;14.50;99.90
35277;DHT22;21401;50.878;8.050;2022-09-03T22:15:46;14.90;99.90
35277;DHT22;21401;50.878;8.050;2022-09-03T22:18:29;15.10;99.90
35277;DHT22;21401;50.878;8.050;2022-09-03T22:21:22;14.90;99.90
35277;DHT22;21401;50.878;8.050;2022-09-03T22:24:17;15.00;99.90
35277;DHT22;21401;50.878;8.050;2022-09-03T22:27:04;15.10;99.90
35277;DHT22;21401;50.878;8.050;2022-09-03T22:43:41;14.00;99.90
35277;DHT22;21401;50.878;8.050;2022-09-03T22:46:45;13.90;99.90
35277;DHT22;21401;50.878;8.050;2022-09-03T22:49:35;14.10;99.90
35277;DHT22;21401;50.878;8.050;2022-09-03T22:52:24;14.20;99.90
35277;DHT22;21401;50.878;8.050;2022-09-03T22:57:23;14.00;99.90
35277;DHT22;21401;50.878;8.050;2022-09-03T23:00:01;14.10;99.90
35277;DHT22;21401;50.878;8.050;2022-09-03T23:02:28;14.00;99.90
35277;DHT22;21401;50.878;8.050;2022-09-03T23:10:21;14.00;99.90
35277;DHT22;21401;50.878;8.050;2022-09-03T23:13:24;14.20;99.90
35277;DHT22;21401;50.878;8.050;2022-09-03T23:15:58;14.30;99.90
35277;DHT22;21401;50.878;8.050;2022-09-03T23:18:26;14.10;99.90
35277;DHT22;21401;50.878;8.050;2022-09-03T23:23:54;13.80;99.90
35277;DHT22;21401;50.878;8.050;2022-09-03T23:28:52;13.60;99.90
35277;DHT22;21401;50.878;8.050;2022-09-03T23:31:25;13.40;99.90
35277;DHT22;21401;50.878;8.050;2022-09-03T23:41:05;13.60;99.90
35277;DHT22;21401;50.878;8.050;2022-09-03T23:47:33;13.30;99.90